Weather observations for the past three days for
Ontario Municipal Airport
Metric (Imperial)
Date Time (mdt) Wind (kph) Vis. (km) Weather Sky Cond. Temperature (ºC) Relative Humidity Wind Chill (°C) Heat Index (°C) Pressure Precipitation (cm)
Air Dwpt 6 hour altimeter (cm) sea level (mb) 1 hr 3 hr 6 hr
Max. Min.
02 13:53 Calm 16.09 Fair CLR 22.2 1.7 26% 76.2 1015.6
02 12:53 SE 9 16.09 Fair CLR 21.1 2.2 29% 76.28 1016.4
02 11:53 Calm 16.09 Fair CLR 18.9 2.8 19.4 5 34% 76.33 1017.1
02 10:53 E 9 16.09 Fair CLR 17.2 2.8 38% 76.33 1017.3
02 09:53 Calm 16.09 Fair CLR 13.3 4.4 55% 76.35 1017.6
02 08:53 Calm 16.09 Fair CLR 9.4 3.3 66% 76.35 1017.5
02 07:53 W 7 16.09 Fair CLR 6.7 2.8 76% 6 76.33 1017.3
02 06:53 W 7 16.09 Fair CLR 5 2.2 82% 4 76.3 1016.9
02 05:53 NW 7 16.09 Fair CLR 5 2.8 12.2 5 86% 4 76.3 1016.9
02 04:53 W 9 16.09 Fair CLR 7.2 2.8 74% 6 76.3 1016.7
02 03:53 W 11 16.09 Fair CLR 7.8 3.3 73% 6 76.28 1016.5
02 02:53 W 7 16.09 Fair CLR 7.2 3.3 77% 6 76.28 1016.6
02 01:53 W 6 16.09 Fair CLR 8.3 3.3 71% 76.3 1016.8
02 00:53 Calm 16.09 Fair CLR 10 3.9 66% 76.28 1016.7
01 23:53 Calm 16.09 Fair CLR 12.2 3.9 23.9 12.2 57% 76.28 1016.4
01 22:53 E 6 16.09 Fair CLR 13.3 3.9 53% 76.28 1016.7
01 21:53 N 7 16.09 Fair CLR 16.7 3.3 41% 76.25 1016.4
01 20:53 N 6 16.09 Fair CLR 20 1.7 30% 76.23 1016.0
01 19:53 NE 7 16.09 Fair CLR 22.2 1.7 26% 76.23 1016.1
01 18:53 E 7 16.09 Fair CLR 23.3 0.6 22% 76.25 1016.8
01 17:53 N 9 16.09 Fair CLR 23.9 0.6 24.4 18.3 22% 25 76.28 1016.9
01 16:53 S 6 16.09 Fair CLR 23.3 -1.7 19% 76.33 1017.5
01 15:53 E 9 16.09 Fair CLR 23.3 -2.2 18% 76.4 1018.5
01 14:53 S 11 16.09 Fair CLR 22.8 0.6 23% 76.45 1019.2
01 13:53 E 9 16.09 Fair CLR 21.7 3.3 30% 76.5 1019.8
01 12:53 NE 7 16.09 Fair CLR 20 3.9 35% 76.58 1020.7
01 11:53 Vrbl 7 16.09 Fair CLR 18.3 5.6 18.3 2.2 43% 76.63 1021.4
01 10:53 NW 6 16.09 Fair CLR 14.4 4.4 51% 76.66 1022.0
01 09:53 Calm 16.09 Fair CLR 11.1 3.3 59% 76.66 1022.3
01 08:53 Calm 16.09 Fair CLR 8.3 3.3 71% 76.63 1021.9
01 07:53 W 6 16.09 Fair CLR 5 1.7 79% 76.61 1021.4
01 06:53 W 7 16.09 Fair CLR 2.2 0 86% 0 76.56 1020.8
01 05:53 W 6 16.09 Fair CLR 3.3 0.6 10 2.8 83% 76.53 1020.3
01 04:53 W 6 16.09 Fair CLR 3.9 1.1 82% 76.5 1020.1
01 03:53 Calm 16.09 Fair CLR 5.6 1.1 73% 76.5 1019.9
01 02:53 SW 7 16.09 Fair CLR 6.1 2.2 76% 5 76.48 1019.8
01 01:53 W 6 16.09 Fair CLR 7.8 1.7 66% 76.48 1019.6
01 00:53 W 9 16.09 Fair CLR 8.3 1.7 63% 7 76.45 1019.0
30 23:53 SW 13 16.09 Fair CLR 10 1.7 21.7 8.9 57% 8 76.4 1018.6
30 22:53 W 13 16.09 Fair CLR 11.1 2.2 55% 76.38 1018.3
30 21:53 W 6 16.09 Fair CLR 12.8 2.2 49% 76.35 1017.9
30 20:53 W 6 16.09 Fair CLR 17.8 0 30% 76.33 1017.3
30 19:53 N 7 16.09 Fair CLR 20 0 26% 76.33 1017.5
30 18:53 N 6 16.09 Fair CLR 21.1 -0.6 23% 76.35 1018.1
30 17:53 Calm 16.09 Fair CLR 21.7 0.6 21.7 16.7 25% 76.38 1018.1
30 16:53 W 7 16.09 Fair CLR 21.1 0.6 26% 76.4 1018.6
30 15:53 NW 13 16.09 Fair CLR 21.1 2.2 29% 76.48 1019.5
30 14:53 Calm 16.09 A Few Clouds FEW070 20.6 2.2 30% 76.53 1020.1
30 13:53 S 9 16.09 Fair CLR 19.4 2.2 32% 76.56 1020.8
30 12:53 SE 6 16.09 Fair CLR 18.9 1.7 32% 76.61 1021.4
30 11:53 Vrbl 7 16.09 Fair CLR 16.7 2.8 16.7 2.8 40% 76.66 1022.1
30 10:53 Calm 16.09 Fair CLR 14.4 2.2 44% 76.68 1022.4
30 09:53 N 7 16.09 Fair CLR 12.2 2.8 53% 76.71 1022.6
30 08:53 Calm 16.09 Fair CLR 9.4 2.8 64% 76.71 1023.0
30 07:53 Calm 16.09 Fair CLR 6.1 1.7 74% 76.68 1022.5
30 06:53 W 11 16.09 Fair CLR 2.8 0.6 86% 0 76.61 1021.8
30 05:53 Calm 16.09 Fair CLR 6.1 1.1 10 5 71% 76.61 1021.5
30 04:53 W 9 16.09 Fair CLR 6.7 1.1 68% 5 76.58 1020.9
30 03:53 W 7 16.09 Fair CLR 6.7 1.1 68% 6 76.56 1020.4
30 02:53 W 9 16.09 Fair CLR 6.7 1.7 71% 5 76.56 1020.6
30 01:53 W 7 16.09 Fair CLR 7.2 2.2 71% 6 76.56 1020.6
30 00:53 W 9 16.09 Fair CLR 8.3 2.2 66% 7 76.53 1020.3
29 23:53 Calm 16.09 Fair CLR 9.4 2.2 20.6 9.4 61% 76.5 1019.9
29 22:53 N 9 16.09 Fair CLR 10.6 2.8 59% 76.5 1020.1
29 21:53 W 6 16.09 Mostly Cloudy BKN120 14.4 4.4 51% 76.45 1019.3
29 20:53 NW 9 16.09 Overcast OVC120 15 5.6 54% 76.43 1019.1
29 19:53 W 7 16.09 Fair CLR 17.2 2.2 37% 76.43 1018.9
29 18:53 N 11 16.09 Fair CLR 19.4 0 27% 76.43 1018.9
29 17:53 N 15 16.09 Mostly Cloudy BKN100 20 1.1 21.7 17.8 28% 76.45 1019.0
29 16:53 N 15 16.09 Partly Cloudy SCT120 20 0.6 27% 76.48 1019.3
29 15:53 Vrbl 9 16.09 Mostly Cloudy BKN120 21.7 1.1 26% 76.5 1019.5
29 14:53 Vrbl 7 G 28 16.09 Mostly Cloudy FEW080 SCT090 BKN110 19.4 0.6 29% 76.5 1019.8
Date Time (mdt) Wind (kph) Vis. (km) Weather Sky Cond. Air Dwpt Max. Min. Relative Humidity Wind Chill (°C) Heat Index (°C) altimeter (cm) sea level (mb) 1 hr 3 hr 6 hr
6 hour
Temperature (ºC) Pressure Precipitation (cm)